Search for airport 
image banner adimage banner adimage banner ad
image banner ad

1PA1 - 401 City Avenue

Located in Philadelphia, United States

ICAO - 1PA1, IATA -

Data provided by Airmate  

General information

Coordinates: N40°0'34" W75°12'50"
Elevation is 234 feet MSL.
Magnetic variation is -11° East
View others Airports in Pennsylvania

Operational data

Special qualification required
Current time UTC:
Current local time:
Weather at : KLOM - Wings Field ( 15 km )
METAR: KLOM 182315Z AUTO 23008KT 10SM CLR 25/06 A3025 RMK AO2 T02530059
View NOTAMs / SUP AIP / TFR affecting this airport [VIEW]
Communications frequencies: [VIEW]

Runways:

Airport contact information

Address: Philadelphia United States

Satellite view of 1PA1